sensor_id;sensor_type;location;lat;lon;timestamp;pressure;altitude;pressure_sealevel;temperature;humidity
26807;BME280;14380;49.910;6.792;2022-12-16T00:01:06;98034.19;;;-7.78;100.00
26807;BME280;14380;49.910;6.792;2022-12-16T00:03:33;98024.78;;;-7.80;100.00
26807;BME280;14380;49.910;6.792;2022-12-16T00:06:00;98029.16;;;-7.64;100.00
26807;BME280;14380;49.910;6.792;2022-12-16T00:08:30;98031.53;;;-7.88;100.00
26807;BME280;14380;49.910;6.792;2022-12-16T00:10:58;98028.34;;;-7.53;100.00
26807;BME280;14380;49.910;6.792;2022-12-16T00:13:27;98030.88;;;-7.58;100.00
26807;BME280;14380;49.910;6.792;2022-12-16T00:15:53;98034.31;;;-7.53;100.00
26807;BME280;14380;49.910;6.792;2022-12-16T00:18:20;98033.25;;;-7.87;99.36
26807;BME280;14380;49.910;6.792;2022-12-16T00:20:50;98035.88;;;-7.83;100.00
26807;BME280;14380;49.910;6.792;2022-12-16T00:23:17;98034.19;;;-7.78;100.00
26807;BME280;14380;49.910;6.792;2022-12-16T00:25:45;98032.44;;;-7.85;100.00
26807;BME280;14380;49.910;6.792;2022-12-16T00:28:14;98028.22;;;-7.77;100.00
26807;BME280;14380;49.910;6.792;2022-12-16T00:30:43;98026.50;;;-7.79;99.52
26807;BME280;14380;49.910;6.792;2022-12-16T00:33:10;98029.91;;;-7.82;100.00
26807;BME280;14380;49.910;6.792;2022-12-16T00:35:37;98039.38;;;-7.70;100.00
26807;BME280;14380;49.910;6.792;2022-12-16T00:38:03;98032.56;;;-7.60;100.00
26807;BME280;14380;49.910;6.792;2022-12-16T00:40:30;98031.72;;;-7.64;100.00
26807;BME280;14380;49.910;6.792;2022-12-16T00:42:56;98035.19;;;-7.55;100.00
26807;BME280;14380;49.910;6.792;2022-12-16T00:45:23;98037.69;;;-7.60;100.00
26807;BME280;14380;49.910;6.792;2022-12-16T00:47:51;98039.41;;;-7.62;100.00
26807;BME280;14380;49.910;6.792;2022-12-16T00:50:17;98042.78;;;-7.66;100.00
26807;BME280;14380;49.910;6.792;2022-12-16T00:52:44;98038.47;;;-7.77;100.00
26807;BME280;14380;49.910;6.792;2022-12-16T00:55:12;98041.16;;;-7.55;100.00
26807;BME280;14380;49.910;6.792;2022-12-16T00:57:39;98043.75;;;-7.47;100.00
26807;BME280;14380;49.910;6.792;2022-12-16T01:00:06;98040.31;;;-7.51;100.00
26807;BME280;14380;49.910;6.792;2022-12-16T01:02:37;98044.53;;;-7.62;100.00
26807;BME280;14380;49.910;6.792;2022-12-16T01:05:06;98049.63;;;-7.67;100.00
26807;BME280;14380;49.910;6.792;2022-12-16T01:07:33;98046.19;;;-7.67;100.00
26807;BME280;14380;49.910;6.792;2022-12-16T01:09:59;98053.94;;;-7.61;100.00
26807;BME280;14380;49.910;6.792;2022-12-16T01:12:27;98062.38;;;-7.76;100.00
26807;BME280;14380;49.910;6.792;2022-12-16T01:14:53;98058.22;;;-7.58;100.00
26807;BME280;14380;49.910;6.792;2022-12-16T01:17:20;98065.00;;;-7.70;100.00
26807;BME280;14380;49.910;6.792;2022-12-16T01:19:46;98061.63;;;-7.59;100.00
26807;BME280;14380;49.910;6.792;2022-12-16T01:22:14;98065.75;;;-7.80;100.00
26807;BME280;14380;49.910;6.792;2022-12-16T01:24:42;98060.75;;;-7.65;100.00
26807;BME280;14380;49.910;6.792;2022-12-16T01:27:09;98068.38;;;-7.75;100.00
26807;BME280;14380;49.910;6.792;2022-12-16T01:29:35;98069.25;;;-7.70;100.00
26807;BME280;14380;49.910;6.792;2022-12-16T01:32:02;98070.91;;;-7.80;100.00
26807;BME280;14380;49.910;6.792;2022-12-16T01:34:29;98069.25;;;-7.72;100.00
26807;BME280;14380;49.910;6.792;2022-12-16T01:36:56;98078.69;;;-7.63;100.00
26807;BME280;14380;49.910;6.792;2022-12-16T01:39:24;98074.38;;;-7.73;100.00
26807;BME280;14380;49.910;6.792;2022-12-16T01:41:51;98079.44;;;-7.78;100.00
26807;BME280;14380;49.910;6.792;2022-12-16T01:44:20;98077.75;;;-7.78;100.00
26807;BME280;14380;49.910;6.792;2022-12-16T01:46:49;98087.97;;;-7.79;100.00
26807;BME280;14380;49.910;6.792;2022-12-16T01:49:21;98088.88;;;-7.75;100.00
26807;BME280;14380;49.910;6.792;2022-12-16T01:51:48;98095.53;;;-7.98;100.00
26807;BME280;14380;49.910;6.792;2022-12-16T01:54:18;98097.38;;;-7.81;100.00
26807;BME280;14380;49.910;6.792;2022-12-16T01:56:53;98104.19;;;-7.85;100.00
26807;BME280;14380;49.910;6.792;2022-12-16T01:59:21;98105.03;;;-7.84;100.00
26807;BME280;14380;49.910;6.792;2022-12-16T02:01:50;98099.06;;;-7.85;100.00
26807;BME280;14380;49.910;6.792;2022-12-16T02:04:17;98096.47;;;-7.86;100.00
26807;BME280;14380;49.910;6.792;2022-12-16T02:06:44;98094.81;;;-7.83;100.00
26807;BME280;14380;49.910;6.792;2022-12-16T02:09:11;98098.25;;;-7.81;100.00
26807;BME280;14380;49.910;6.792;2022-12-16T02:11:58;98105.81;;;-7.93;100.00
26807;BME280;14380;49.910;6.792;2022-12-16T02:14:53;98098.97;;;-7.94;99.74
26807;BME280;14380;49.910;6.792;2022-12-16T02:17:27;98091.09;;;-8.19;100.00
26807;BME280;14380;49.910;6.792;2022-12-16T02:20:38;98084.31;;;-8.11;98.40
26807;BME280;14380;49.910;6.792;2022-12-16T02:23:38;98093.81;;;-8.00;99.16
26807;BME280;14380;49.910;6.792;2022-12-16T02:29:23;98094.69;;;-8.00;100.00
26807;BME280;14380;49.910;6.792;2022-12-16T02:32:00;98092.97;;;-7.96;100.00
26807;BME280;14380;49.910;6.792;2022-12-16T02:34:32;98092.22;;;-7.84;100.00
26807;BME280;14380;49.910;6.792;2022-12-16T02:37:13;98103.91;;;-8.17;99.88
26807;BME280;14380;49.910;6.792;2022-12-16T02:39:47;98097.84;;;-8.26;100.00
26807;BME280;14380;49.910;6.792;2022-12-16T02:42:21;98092.84;;;-8.13;100.00
26807;BME280;14380;49.910;6.792;2022-12-16T02:44:56;98092.06;;;-8.04;99.84
26807;BME280;14380;49.910;6.792;2022-12-16T02:47:27;98103.81;;;-8.28;100.00
26807;BME280;14380;49.910;6.792;2022-12-16T02:49:54;98102.97;;;-8.27;99.85
26807;BME280;14380;49.910;6.792;2022-12-16T02:52:23;98113.25;;;-8.23;99.09
26807;BME280;14380;49.910;6.792;2022-12-16T02:54:53;98114.00;;;-8.33;98.53
26807;BME280;14380;49.910;6.792;2022-12-16T02:57:34;98108.84;;;-8.39;99.27
26807;BME280;14380;49.910;6.792;2022-12-16T03:00:06;98111.56;;;-8.22;98.66
26807;BME280;14380;49.910;6.792;2022-12-16T03:02:44;98114.13;;;-8.22;98.66
26807;BME280;14380;49.910;6.792;2022-12-16T03:05:16;98116.53;;;-8.39;99.68
26807;BME280;14380;49.910;6.792;2022-12-16T03:07:46;98118.16;;;-8.44;99.72
26807;BME280;14380;49.910;6.792;2022-12-16T03:10:16;98121.63;;;-8.38;99.91
26807;BME280;14380;49.910;6.792;2022-12-16T03:12:44;98116.41;;;-8.50;98.69
26807;BME280;14380;49.910;6.792;2022-12-16T03:15:12;98121.28;;;-8.73;98.37
26807;BME280;14380;49.910;6.792;2022-12-16T03:17:43;98121.47;;;-8.56;98.56
26807;BME280;14380;49.910;6.792;2022-12-16T03:20:15;98122.38;;;-8.48;98.90
26807;BME280;14380;49.910;6.792;2022-12-16T03:22:45;98118.81;;;-8.67;97.08
26807;BME280;14380;49.910;6.792;2022-12-16T03:25:13;98112.22;;;-8.43;96.69
26807;BME280;14380;49.910;6.792;2022-12-16T03:27:44;98110.38;;;-8.55;96.61
26807;BME280;14380;49.910;6.792;2022-12-16T03:30:16;98108.63;;;-8.59;96.91
26807;BME280;14380;49.910;6.792;2022-12-16T03:32:50;98109.47;;;-8.63;98.10
26807;BME280;14380;49.910;6.792;2022-12-16T03:35:24;98117.72;;;-8.86;98.77
26807;BME280;14380;49.910;6.792;2022-12-16T03:37:53;98112.69;;;-8.78;99.46
26807;BME280;14380;49.910;6.792;2022-12-16T03:40:22;98112.84;;;-8.66;97.75
26807;BME280;14380;49.910;6.792;2022-12-16T03:42:51;98116.25;;;-8.67;98.52
26807;BME280;14380;49.910;6.792;2022-12-16T03:45:25;98117.94;;;-8.69;97.09
26807;BME280;14380;49.910;6.792;2022-12-16T03:47:56;98128.13;;;-8.74;96.69
26807;BME280;14380;49.910;6.792;2022-12-16T03:50:26;98111.81;;;-8.82;96.87
26807;BME280;14380;49.910;6.792;2022-12-16T03:52:55;98106.78;;;-8.76;97.02
26807;BME280;14380;49.910;6.792;2022-12-16T03:55:21;98109.41;;;-8.70;96.29
26807;BME280;14380;49.910;6.792;2022-12-16T03:57:48;98110.97;;;-8.81;96.23
26807;BME280;14380;49.910;6.792;2022-12-16T04:00:15;98111.50;;;-9.08;96.02
26807;BME280;14380;49.910;6.792;2022-12-16T04:02:42;98121.84;;;-8.99;97.99
26807;BME280;14380;49.910;6.792;2022-12-16T04:05:10;98126.09;;;-9.01;97.42
26807;BME280;14380;49.910;6.792;2022-12-16T04:07:36;98126.88;;;-9.05;96.08
26807;BME280;14380;49.910;6.792;2022-12-16T04:10:04;98129.72;;;-8.82;95.59
26807;BME280;14380;49.910;6.792;2022-12-16T04:12:31;98125.31;;;-8.92;95.89
26807;BME280;14380;49.910;6.792;2022-12-16T04:15:15;98138.06;;;-8.96;96.55
26807;BME280;14380;49.910;6.792;2022-12-16T04:17:59;98135.38;;;-9.08;97.29
26807;BME280;14380;49.910;6.792;2022-12-16T04:20:47;98140.25;;;-9.27;96.65
26807;BME280;14380;49.910;6.792;2022-12-16T04:23:46;98138.75;;;-9.12;97.76
26807;BME280;14380;49.910;6.792;2022-12-16T04:26:31;98138.53;;;-9.26;96.22
26807;BME280;14380;49.910;6.792;2022-12-16T04:29:18;98155.91;;;-9.02;96.16
26807;BME280;14380;49.910;6.792;2022-12-16T04:31:44;98148.13;;;-9.09;95.64
26807;BME280;14380;49.910;6.792;2022-12-16T04:34:11;98148.69;;;-9.32;97.52
26807;BME280;14380;49.910;6.792;2022-12-16T04:36:54;98153.06;;;-9.23;97.84
26807;BME280;14380;49.910;6.792;2022-12-16T04:39:39;98148.94;;;-9.15;98.02
26807;BME280;14380;49.910;6.792;2022-12-16T04:42:22;98148.94;;;-9.14;96.67
26807;BME280;14380;49.910;6.792;2022-12-16T04:45:07;98153.94;;;-9.21;95.59
26807;BME280;14380;49.910;6.792;2022-12-16T04:47:52;98159.75;;;-9.32;96.78
26807;BME280;14380;49.910;6.792;2022-12-16T04:50:36;98165.84;;;-9.23;97.66
26807;BME280;14380;49.910;6.792;2022-12-16T04:53:22;98163.44;;;-9.14;96.08
26807;BME280;14380;49.910;6.792;2022-12-16T04:56:06;98168.91;;;-9.46;96.65
26807;BME280;14380;49.910;6.792;2022-12-16T04:58:50;98178.53;;;-9.31;96.77
26807;BME280;14380;49.910;6.792;2022-12-16T05:01:36;98183.50;;;-9.39;95.68
26807;BME280;14380;49.910;6.792;2022-12-16T05:04:20;98185.19;;;-9.41;95.56
26807;BME280;14380;49.910;6.792;2022-12-16T05:07:04;98192.00;;;-9.40;95.49
26807;BME280;14380;49.910;6.792;2022-12-16T05:09:50;98197.06;;;-9.43;95.61
26807;BME280;14380;49.910;6.792;2022-12-16T05:12:45;98199.69;;;-9.40;95.63
26807;BME280;14380;49.910;6.792;2022-12-16T05:15:29;98200.50;;;-9.43;95.33
26807;BME280;14380;49.910;6.792;2022-12-16T05:18:19;98201.41;;;-9.39;96.03
26807;BME280;14380;49.910;6.792;2022-12-16T05:21:03;98208.41;;;-9.27;96.28
26807;BME280;14380;49.910;6.792;2022-12-16T05:23:48;98203.13;;;-9.39;95.73
26807;BME280;14380;49.910;6.792;2022-12-16T05:26:33;98205.56;;;-9.44;96.25
26807;BME280;14380;49.910;6.792;2022-12-16T05:29:28;98211.91;;;-9.19;94.78
26807;BME280;14380;49.910;6.792;2022-12-16T05:32:12;98214.31;;;-9.31;95.51
26807;BME280;14380;49.910;6.792;2022-12-16T05:34:57;98219.50;;;-9.27;94.70
26807;BME280;14380;49.910;6.792;2022-12-16T05:37:41;98221.94;;;-9.33;95.52
26807;BME280;14380;49.910;6.792;2022-12-16T05:40:25;98224.34;;;-9.44;95.67
26807;BME280;14380;49.910;6.792;2022-12-16T05:43:10;98231.22;;;-9.38;96.27
26807;BME280;14380;49.910;6.792;2022-12-16T05:45:54;98241.19;;;-9.57;97.35
26807;BME280;14380;49.910;6.792;2022-12-16T05:48:38;98247.19;;;-9.54;97.50
26807;BME280;14380;49.910;6.792;2022-12-16T05:51:22;98252.44;;;-9.44;96.29
26807;BME280;14380;49.910;6.792;2022-12-16T05:54:06;98254.06;;;-9.50;95.86
26807;BME280;14380;49.910;6.792;2022-12-16T05:56:50;98249.19;;;-9.35;94.63
26807;BME280;14380;49.910;6.792;2022-12-16T05:59:35;98257.31;;;-9.59;96.21
26807;BME280;14380;49.910;6.792;2022-12-16T06:02:19;98256.56;;;-9.53;94.31
26807;BME280;14380;49.910;6.792;2022-12-16T06:05:04;98262.91;;;-9.80;95.28
26807;BME280;14380;49.910;6.792;2022-12-16T06:07:50;98263.97;;;-9.67;94.77
26807;BME280;14380;49.910;6.792;2022-12-16T06:10:34;98270.63;;;-9.77;95.87
26807;BME280;14380;49.910;6.792;2022-12-16T06:13:18;98269.06;;;-9.69;95.24
26807;BME280;14380;49.910;6.792;2022-12-16T06:16:04;98283.22;;;-9.87;94.84
26807;BME280;14380;49.910;6.792;2022-12-16T06:18:48;98285.94;;;-9.79;94.72
26807;BME280;14380;49.910;6.792;2022-12-16T06:21:32;98290.44;;;-9.64;94.90
26807;BME280;14380;49.910;6.792;2022-12-16T06:24:16;98301.19;;;-9.82;95.42
26807;BME280;14380;49.910;6.792;2022-12-16T06:27:00;98291.56;;;-9.49;95.48
26807;BME280;14380;49.910;6.792;2022-12-16T06:29:44;98298.06;;;-9.65;95.10
26807;BME280;14380;49.910;6.792;2022-12-16T06:32:29;98300.31;;;-9.82;99.44
26807;BME280;14380;49.910;6.792;2022-12-16T06:35:13;98308.16;;;-9.75;100.00
26807;BME280;14380;49.910;6.792;2022-12-16T06:37:57;98312.56;;;-9.66;98.35
26807;BME280;14380;49.910;6.792;2022-12-16T06:40:41;98318.31;;;-9.76;97.30
26807;BME280;14380;49.910;6.792;2022-12-16T06:43:25;98323.41;;;-9.78;96.58
26807;BME280;14380;49.910;6.792;2022-12-16T06:46:09;98326.44;;;-9.97;96.57
26807;BME280;14380;49.910;6.792;2022-12-16T06:48:54;98337.53;;;-9.95;97.38
26807;BME280;14380;49.910;6.792;2022-12-16T06:51:38;98342.59;;;-9.98;97.76
26807;BME280;14380;49.910;6.792;2022-12-16T06:54:22;98343.59;;;-9.90;96.12
26807;BME280;14380;49.910;6.792;2022-12-16T06:57:06;98349.63;;;-9.87;95.86
26807;BME280;14380;49.910;6.792;2022-12-16T06:59:50;98352.84;;;-9.95;96.77
26807;BME280;14380;49.910;6.792;2022-12-16T07:02:33;98364.09;;;-9.86;96.33
26807;BME280;14380;49.910;6.792;2022-12-16T07:05:19;98361.41;;;-9.95;94.38
26807;BME280;14380;49.910;6.792;2022-12-16T07:08:03;98380.03;;;-9.99;95.18
26807;BME280;14380;49.910;6.792;2022-12-16T07:10:47;98385.56;;;-9.77;94.18
26807;BME280;14380;49.910;6.792;2022-12-16T07:13:31;98377.06;;;-9.78;94.39
26807;BME280;14380;49.910;6.792;2022-12-16T07:16:15;98381.22;;;-9.81;94.94
26807;BME280;14380;49.910;6.792;2022-12-16T07:18:59;98381.97;;;-9.86;94.75
26807;BME280;14380;49.910;6.792;2022-12-16T07:21:44;98392.13;;;-9.89;94.42
26807;BME280;14380;49.910;6.792;2022-12-16T07:24:28;98387.47;;;-9.65;94.07
26807;BME280;14380;49.910;6.792;2022-12-16T07:27:12;98386.97;;;-9.92;93.99
26807;BME280;14380;49.910;6.792;2022-12-16T07:29:56;98387.31;;;-9.75;93.01
26807;BME280;14380;49.910;6.792;2022-12-16T07:32:40;98401.41;;;-9.94;94.87
26807;BME280;14380;49.910;6.792;2022-12-16T07:35:24;98400.81;;;-9.80;93.40
26807;BME280;14380;49.910;6.792;2022-12-16T07:38:09;98407.56;;;-9.84;94.56
26807;BME280;14380;49.910;6.792;2022-12-16T07:40:53;98420.06;;;-9.96;94.99
26807;BME280;14380;49.910;6.792;2022-12-16T07:43:37;98420.63;;;-9.70;94.12
26807;BME280;14380;49.910;6.792;2022-12-16T07:46:21;98428.84;;;-9.83;94.36
26807;BME280;14380;49.910;6.792;2022-12-16T07:49:05;98432.34;;;-9.80;94.48
26807;BME280;14380;49.910;6.792;2022-12-16T07:51:49;98430.22;;;-9.58;93.40
26807;BME280;14380;49.910;6.792;2022-12-16T07:54:34;98436.72;;;-9.74;92.62
26807;BME280;14380;49.910;6.792;2022-12-16T07:57:18;98443.41;;;-9.79;93.14
26807;BME280;14380;49.910;6.792;2022-12-16T08:00:02;98453.47;;;-9.87;94.49
26807;BME280;14380;49.910;6.792;2022-12-16T08:02:51;98451.81;;;-9.85;95.09
26807;BME280;14380;49.910;6.792;2022-12-16T08:05:35;98456.06;;;-9.86;94.61
26807;BME280;14380;49.910;6.792;2022-12-16T08:08:19;98453.47;;;-9.87;94.59
26807;BME280;14380;49.910;6.792;2022-12-16T08:11:05;98455.41;;;-9.75;94.02
26807;BME280;14380;49.910;6.792;2022-12-16T08:13:49;98458.31;;;-9.60;94.26
26807;BME280;14380;49.910;6.792;2022-12-16T08:16:33;98459.06;;;-9.64;93.69
26807;BME280;14380;49.910;6.792;2022-12-16T08:19:17;98461.50;;;-9.68;93.83
26807;BME280;14380;49.910;6.792;2022-12-16T08:22:01;98470.13;;;-9.63;93.17
26807;BME280;14380;49.910;6.792;2022-12-16T08:24:45;98473.31;;;-9.75;94.35
26807;BME280;14380;49.910;6.792;2022-12-16T08:27:30;98477.78;;;-9.63;93.17
26807;BME280;14380;49.910;6.792;2022-12-16T08:30:14;98479.47;;;-9.65;94.43
26807;BME280;14380;49.910;6.792;2022-12-16T08:33:00;98481.66;;;-9.41;93.43
26807;BME280;14380;49.910;6.792;2022-12-16T08:35:45;98486.75;;;-9.41;93.56
26807;BME280;14380;49.910;6.792;2022-12-16T08:38:29;98482.34;;;-9.48;93.80
26807;BME280;14380;49.910;6.792;2022-12-16T08:41:13;98491.75;;;-9.47;94.63
26807;BME280;14380;49.910;6.792;2022-12-16T08:43:58;98485.34;;;-9.27;94.90
26807;BME280;14380;49.910;6.792;2022-12-16T08:46:42;98483.44;;;-9.38;95.85
26807;BME280;14380;49.910;6.792;2022-12-16T08:49:34;98488.59;;;-9.35;95.57
26807;BME280;14380;49.910;6.792;2022-12-16T08:52:18;98484.81;;;-9.10;95.96
26807;BME280;14380;49.910;6.792;2022-12-16T08:55:03;98490.66;;;-9.16;95.62
26807;BME280;14380;49.910;6.792;2022-12-16T08:57:52;98496.03;;;-9.03;96.77
26807;BME280;14380;49.910;6.792;2022-12-16T09:00:37;98504.28;;;-9.18;96.80
26807;BME280;14380;49.910;6.792;2022-12-16T09:03:21;98503.56;;;-9.11;96.82
26807;BME280;14380;49.910;6.792;2022-12-16T09:06:06;98511.44;;;-9.00;96.01
26807;BME280;14380;49.910;6.792;2022-12-16T09:08:49;98507.09;;;-9.04;95.32
26807;BME280;14380;49.910;6.792;2022-12-16T09:11:33;98510.34;;;-9.13;95.64
26807;BME280;14380;49.910;6.792;2022-12-16T09:14:17;98512.97;;;-9.08;95.88
26807;BME280;14380;49.910;6.792;2022-12-16T09:17:03;98509.00;;;-8.94;95.96
26807;BME280;14380;49.910;6.792;2022-12-16T09:19:47;98527.34;;;-9.14;94.44
26807;BME280;14380;49.910;6.792;2022-12-16T09:22:31;98519.00;;;-9.05;94.91
26807;BME280;14380;49.910;6.792;2022-12-16T09:25:15;98515.06;;;-8.89;96.07
26807;BME280;14380;49.910;6.792;2022-12-16T09:27:55;98527.06;;;-8.85;96.43
26807;BME280;14380;49.910;6.792;2022-12-16T09:30:39;98526.44;;;-8.71;95.89
26807;BME280;14380;49.910;6.792;2022-12-16T09:33:25;98533.31;;;-8.69;95.78
26807;BME280;14380;49.910;6.792;2022-12-16T09:36:09;98538.47;;;-8.67;95.04
26807;BME280;14380;49.910;6.792;2022-12-16T09:38:52;98535.88;;;-8.69;94.86
26807;BME280;14380;49.910;6.792;2022-12-16T09:41:44;98538.50;;;-8.64;95.20
26807;BME280;14380;49.910;6.792;2022-12-16T09:44:41;98540.28;;;-8.60;94.63
26807;BME280;14380;49.910;6.792;2022-12-16T09:47:33;98536.91;;;-8.59;94.99
26807;BME280;14380;49.910;6.792;2022-12-16T09:50:27;98541.31;;;-8.50;95.63
26807;BME280;14380;49.910;6.792;2022-12-16T09:53:13;98542.34;;;-8.37;95.46
26807;BME280;14380;49.910;6.792;2022-12-16T09:55:58;98549.97;;;-8.42;94.96
26807;BME280;14380;49.910;6.792;2022-12-16T09:58:46;98539.00;;;-8.34;94.94
26807;BME280;14380;49.910;6.792;2022-12-16T10:01:35;98538.13;;;-8.35;95.07
26807;BME280;14380;49.910;6.792;2022-12-16T10:04:20;98545.13;;;-8.25;96.01
26807;BME280;14380;49.910;6.792;2022-12-16T10:07:08;98536.69;;;-8.19;95.80
26807;BME280;14380;49.910;6.792;2022-12-16T10:09:58;98543.41;;;-8.26;96.13
26807;BME280;14380;49.910;6.792;2022-12-16T10:12:49;98545.84;;;-8.33;97.52
26807;BME280;14380;49.910;6.792;2022-12-16T10:15:37;98530.91;;;-8.07;97.21
26807;BME280;14380;49.910;6.792;2022-12-16T10:18:35;98533.72;;;-7.88;97.21
26807;BME280;14380;49.910;6.792;2022-12-16T10:21:27;98537.25;;;-7.80;98.39
26807;BME280;14380;49.910;6.792;2022-12-16T10:24:21;98538.09;;;-7.81;98.77
26807;BME280;14380;49.910;6.792;2022-12-16T10:27:12;98545.75;;;-7.84;96.98
26807;BME280;14380;49.910;6.792;2022-12-16T10:29:57;98539.03;;;-7.78;97.83
26807;BME280;14380;49.910;6.792;2022-12-16T10:32:43;98546.88;;;-7.67;96.23
26807;BME280;14380;49.910;6.792;2022-12-16T10:35:33;98544.47;;;-7.54;97.06
26807;BME280;14380;49.910;6.792;2022-12-16T10:38:22;98540.91;;;-7.66;96.66
26807;BME280;14380;49.910;6.792;2022-12-16T10:41:11;98552.88;;;-7.65;97.98
26807;BME280;14380;49.910;6.792;2022-12-16T10:43:57;98550.28;;;-7.68;97.87
26807;BME280;14380;49.910;6.792;2022-12-16T10:46:45;98545.25;;;-7.60;96.85
26807;BME280;14380;49.910;6.792;2022-12-16T10:49:29;98550.56;;;-7.46;97.98
26807;BME280;14380;49.910;6.792;2022-12-16T10:52:13;98546.16;;;-7.55;99.46
26807;BME280;14380;49.910;6.792;2022-12-16T10:55:02;98552.19;;;-7.53;99.38
26807;BME280;14380;49.910;6.792;2022-12-16T10:57:57;98554.00;;;-7.45;98.54
26807;BME280;14380;49.910;6.792;2022-12-16T11:00:46;98550.94;;;-7.18;100.00
26807;BME280;14380;49.910;6.792;2022-12-16T11:03:33;98549.91;;;-7.31;100.00
26807;BME280;14380;49.910;6.792;2022-12-16T11:06:20;98561.97;;;-7.24;99.94
26807;BME280;14380;49.910;6.792;2022-12-16T11:09:24;98556.91;;;-7.18;98.68
26807;BME280;14380;49.910;6.792;2022-12-16T11:12:21;98550.09;;;-7.15;98.81
26807;BME280;14380;49.910;6.792;2022-12-16T11:15:24;98546.84;;;-7.00;98.58
26807;BME280;14380;49.910;6.792;2022-12-16T11:18:12;98547.84;;;-6.91;99.72
26807;BME280;14380;49.910;6.792;2022-12-16T11:21:05;98551.06;;;-7.07;100.00
26807;BME280;14380;49.910;6.792;2022-12-16T11:24:03;98557.81;;;-7.12;100.00
26807;BME280;14380;49.910;6.792;2022-12-16T11:26:52;98549.63;;;-6.80;100.00
26807;BME280;14380;49.910;6.792;2022-12-16T11:29:48;98553.69;;;-7.01;100.00
26807;BME280;14380;49.910;6.792;2022-12-16T11:32:34;98553.81;;;-6.92;100.00
26807;BME280;14380;49.910;6.792;2022-12-16T11:35:23;98548.59;;;-6.98;100.00
26807;BME280;14380;49.910;6.792;2022-12-16T11:38:14;98553.13;;;-6.75;100.00
26807;BME280;14380;49.910;6.792;2022-12-16T11:41:01;98548.06;;;-6.69;100.00
26807;BME280;14380;49.910;6.792;2022-12-16T11:43:48;98558.34;;;-6.66;100.00
26807;BME280;14380;49.910;6.792;2022-12-16T11:46:33;98561.06;;;-6.53;100.00
26807;BME280;14380;49.910;6.792;2022-12-16T11:49:23;98560.25;;;-6.49;100.00
26807;BME280;14380;49.910;6.792;2022-12-16T11:52:11;98560.34;;;-6.37;100.00
26807;BME280;14380;49.910;6.792;2022-12-16T11:55:01;98563.88;;;-6.27;100.00
26807;BME280;14380;49.910;6.792;2022-12-16T11:57:52;98556.03;;;-6.44;100.00
26807;BME280;14380;49.910;6.792;2022-12-16T12:00:47;98555.22;;;-6.37;100.00
26807;BME280;14380;49.910;6.792;2022-12-16T12:03:38;98562.06;;;-6.36;100.00
26807;BME280;14380;49.910;6.792;2022-12-16T12:06:30;98568.00;;;-6.45;100.00
26807;BME280;14380;49.910;6.792;2022-12-16T12:09:18;98569.81;;;-6.34;100.00
26807;BME280;14380;49.910;6.792;2022-12-16T12:12:13;98573.38;;;-6.18;100.00
26807;BME280;14380;49.910;6.792;2022-12-16T12:15:16;98568.53;;;-5.78;100.00
26807;BME280;14380;49.910;6.792;2022-12-16T12:18:04;98573.69;;;-5.70;100.00
26807;BME280;14380;49.910;6.792;2022-12-16T12:20:59;98572.03;;;-5.67;100.00
26807;BME280;14380;49.910;6.792;2022-12-16T12:23:51;98574.47;;;-5.82;100.00
26807;BME280;14380;49.910;6.792;2022-12-16T12:26:43;98572.94;;;-5.61;100.00
26807;BME280;14380;49.910;6.792;2022-12-16T12:29:37;98566.09;;;-5.58;100.00
26807;BME280;14380;49.910;6.792;2022-12-16T12:32:29;98576.38;;;-5.59;100.00
26807;BME280;14380;49.910;6.792;2022-12-16T12:35:26;98575.50;;;-5.61;100.00
26807;BME280;14380;49.910;6.792;2022-12-16T12:38:17;98582.41;;;-5.51;100.00
26807;BME280;14380;49.910;6.792;2022-12-16T12:41:11;98580.69;;;-5.49;100.00
26807;BME280;14380;49.910;6.792;2022-12-16T12:44:11;98581.59;;;-5.45;100.00
26807;BME280;14380;49.910;6.792;2022-12-16T12:47:03;98579.06;;;-5.38;100.00
26807;BME280;14380;49.910;6.792;2022-12-16T12:49:54;98585.84;;;-5.52;100.00
26807;BME280;14380;49.910;6.792;2022-12-16T12:52:56;98590.22;;;-5.35;100.00
26807;BME280;14380;49.910;6.792;2022-12-16T12:55:50;98586.91;;;-5.16;100.00
26807;BME280;14380;49.910;6.792;2022-12-16T12:58:41;98590.41;;;-4.98;100.00
26807;BME280;14380;49.910;6.792;2022-12-16T13:01:30;98592.22;;;-4.74;100.00
26807;BME280;14380;49.910;6.792;2022-12-16T13:04:17;98581.06;;;-4.76;100.00
26807;BME280;14380;49.910;6.792;2022-12-16T13:07:02;98594.84;;;-4.66;100.00
26807;BME280;14380;49.910;6.792;2022-12-16T13:10:10;98597.38;;;-4.79;100.00
26807;BME280;14380;49.910;6.792;2022-12-16T13:13:28;98593.09;;;-4.73;100.00
26807;BME280;14380;49.910;6.792;2022-12-16T13:19:40;98599.13;;;-4.74;100.00
26807;BME280;14380;49.910;6.792;2022-12-16T13:22:28;98594.03;;;-4.46;100.00
26807;BME280;14380;49.910;6.792;2022-12-16T13:25:30;98603.53;;;-4.33;100.00
26807;BME280;14380;49.910;6.792;2022-12-16T13:28:20;98608.69;;;-4.28;100.00
26807;BME280;14380;49.910;6.792;2022-12-16T13:31:05;98608.69;;;-4.30;100.00
26807;BME280;14380;49.910;6.792;2022-12-16T13:33:53;98613.00;;;-4.26;100.00
26807;BME280;14380;49.910;6.792;2022-12-16T13:36:37;98617.28;;;-4.26;100.00
26807;BME280;14380;49.910;6.792;2022-12-16T13:39:24;98623.25;;;-4.44;100.00
26807;BME280;14380;49.910;6.792;2022-12-16T13:42:32;98625.91;;;-4.23;100.00
26807;BME280;14380;49.910;6.792;2022-12-16T13:45:23;98628.47;;;-4.26;100.00
26807;BME280;14380;49.910;6.792;2022-12-16T13:48:32;98626.72;;;-4.22;100.00
26807;BME280;14380;49.910;6.792;2022-12-16T13:51:57;98630.19;;;-4.20;100.00
26807;BME280;14380;49.910;6.792;2022-12-16T13:54:48;98632.75;;;-4.20;100.00
26807;BME280;14380;49.910;6.792;2022-12-16T13:57:36;98631.03;;;-4.16;100.00
26807;BME280;14380;49.910;6.792;2022-12-16T14:00:24;98636.22;;;-4.09;100.00
26807;BME280;14380;49.910;6.792;2022-12-16T14:03:12;98645.69;;;-4.01;100.00
26807;BME280;14380;49.910;6.792;2022-12-16T14:06:00;98643.09;;;-4.03;100.00
26807;BME280;14380;49.910;6.792;2022-12-16T14:08:48;98650.84;;;-3.86;100.00
26807;BME280;14380;49.910;6.792;2022-12-16T14:11:35;98653.41;;;-3.95;100.00
26807;BME280;14380;49.910;6.792;2022-12-16T14:14:30;98655.13;;;-4.02;100.00
26807;BME280;14380;49.910;6.792;2022-12-16T14:17:19;98657.72;;;-3.99;100.00
26807;BME280;14380;49.910;6.792;2022-12-16T14:20:11;98662.03;;;-3.89;100.00